Time;durP1;ratioP1;P1;durP2;ratioP2;P2;SDS_P1;SDS_P2;PMS_P1;PMS_P2;Temp;Humidity;BMP_temperature;BMP_pressure;BME280_temperature;BME280_humidity;BME280_pressure;Samples;Min_cycle;Max_cycle;Signal;HPM_P1;HPM_P2
2021/04/06 00:00:12;;;;;;;8.05;4.67;;;;;;;1.65;74.19;99100.34;1781747;78;26162;-74
2021/04/06 00:02:45;;;;;;;8.98;3.90;;;;;;;1.62;74.27;99099.34;1745918;80;26593;-75
2021/04/06 00:05:13;;;;;;;;;;;;;;;1.60;74.20;99100.01;1708235;82;25758;-75
2021/04/06 00:07:43;;;;;;;10.05;3.90;;;;;;;1.59;74.14;99093.90;1717124;82;26206;-74
2021/04/06 00:10:22;;;;;;;8.87;3.97;;;;;;;1.55;74.23;99089.95;1709025;81;27615;-74
2021/04/06 00:12:53;;;;;;;9.78;5.00;;;;;;;1.53;74.20;99094.57;1755923;80;26177;-75
2021/04/06 00:15:22;;;;;;;10.03;4.78;;;;;;;1.51;74.08;99096.06;1719131;82;25770;-75
2021/04/06 00:17:52;;;;;;;10.03;4.17;;;;;;;1.52;74.14;99100.83;1688502;82;25842;-75
2021/04/06 00:20:22;;;;;;;13.22;4.50;;;;;;;1.48;74.07;99106.11;1728800;81;25656;-76
2021/04/06 00:22:51;;;;;;;10.15;4.67;;;;;;;1.49;74.04;99114.36;1718065;82;27596;-74
2021/04/06 00:25:23;;;;;;;14.55;4.42;;;;;;;1.45;74.13;99107.77;1695362;81;26193;-75
2021/04/06 00:27:52;;;;;;;9.53;3.30;;;;;;;1.40;74.23;99107.43;1721828;81;25878;-75
2021/04/06 00:30:32;;;;;;;7.20;3.75;;;;;;;1.36;74.07;99109.59;1697795;82;26485;-75
2021/04/06 00:33:04;;;;;;;9.23;3.77;;;;;;;1.34;74.14;99110.25;1722209;82;25880;-74
2021/04/06 00:35:35;;;;;;;12.35;4.20;;;;;;;1.34;73.93;99108.92;1709393;82;27616;-75
2021/04/06 00:38:07;;;;;;;10.28;3.62;;;;;;;1.32;73.93;99101.67;1745523;81;26509;-74
2021/04/06 00:40:40;;;;;;;9.68;3.50;;;;;;;1.32;73.95;99109.59;1742593;81;25861;-75
2021/04/06 00:43:07;;;;;;;8.08;4.00;;;;;;;1.30;73.94;99114.20;1741663;81;25832;-74
2021/04/06 00:45:39;;;;;;;7.60;2.55;;;;;;;1.29;73.87;99126.22;1714928;81;25834;-75
2021/04/06 00:48:14;;;;;;;10.20;5.55;;;;;;;1.28;73.97;99133.81;1717402;81;27411;-74
2021/04/06 00:50:46;;;;;;;13.65;5.42;;;;;;;1.28;73.97;99138.57;1717121;81;25895;-75
2021/04/06 00:53:14;;;;;;;9.68;4.28;;;;;;;1.29;74.01;99149.95;1735218;82;25947;-75
2021/04/06 00:55:41;;;;;;;18.30;4.53;;;;;;;1.30;73.91;99148.50;1714474;82;25828;-75
2021/04/06 00:58:14;;;;;;;10.85;3.70;;;;;;;1.31;74.09;99152.77;1743948;81;25885;-74
2021/04/06 01:00:43;;;;;;;8.90;3.02;;;;;;;1.29;73.89;99153.42;1721595;82;27549;-74
2021/04/06 01:03:18;;;;;;;8.38;3.67;;;;;;;1.29;73.68;99153.42;1709613;82;26125;-74
2021/04/06 01:06:06;;;;;;;9.03;3.08;;;;;;;1.30;73.79;99150.30;1742593;81;26492;-75
2021/04/06 01:08:36;;;;;;;8.98;3.02;;;;;;;1.30;73.68;99159.53;1725420;82;25786;-74
2021/04/06 01:11:06;;;;;;;7.65;3.22;;;;;;;1.25;73.55;99157.38;1711265;81;26163;-74
2021/04/06 01:13:37;;;;;;;7.53;3.35;;;;;;;1.25;73.74;99167.09;1699577;82;28471;-74
2021/04/06 01:16:05;;;;;;;9.90;2.90;;;;;;;1.24;73.65;99168.10;1747150;81;25824;-74
2021/04/06 01:18:34;;;;;;;7.90;3.17;;;;;;;1.24;73.66;99172.05;1713473;82;26697;-75
2021/04/06 01:21:12;;;;;;;8.65;3.20;;;;;;;1.19;73.51;99173.02;1716922;81;26148;-74
2021/04/06 01:23:41;;;;;;;9.95;4.25;;;;;;;1.20;73.54;99176.81;1717827;81;25408;-74
2021/04/06 01:26:12;;;;;;;6.22;2.45;;;;;;;1.19;73.55;99175.66;1707440;81;27553;-74
2021/04/06 01:28:40;;;;;;;7.12;2.80;;;;;;;1.18;73.65;99176.63;1717912;82;25913;-74
2021/04/06 01:31:09;;;;;;;8.13;3.22;;;;;;;1.16;73.83;99182.56;1714471;81;26435;-75
2021/04/06 01:33:37;;;;;;;8.60;3.25;;;;;;;1.16;73.77;99193.95;1717756;81;25724;-74
2021/04/06 01:36:08;;;;;;;7.22;2.98;;;;;;;1.16;73.68;99191.31;1721332;81;25856;-75
2021/04/06 01:38:41;;;;;;;8.68;2.77;;;;;;;1.15;73.64;99199.39;1720885;82;28097;-74
2021/04/06 01:41:08;;;;;;;6.78;2.80;;;;;;;1.16;73.83;99196.59;1712265;82;26164;-74
2021/04/06 01:43:46;;;;;;;8.98;3.05;;;;;;;1.15;73.86;99197.59;1718717;81;25438;-75
2021/04/06 01:46:16;;;;;;;8.23;2.83;;;;;;;1.13;73.73;99198.73;1737603;81;25874;-75
2021/04/06 01:48:46;;;;;;;8.53;3.20;;;;;;;1.15;73.86;99208.14;1702358;81;25883;-74
2021/04/06 01:51:16;;;;;;;8.18;2.72;;;;;;;1.14;73.86;99213.06;1697945;81;27608;-74
2021/04/06 01:53:43;;;;;;;8.75;2.70;;;;;;;1.15;73.85;99216.05;1729566;81;26171;-74
2021/04/06 01:56:15;;;;;;;8.35;3.58;;;;;;;1.15;73.77;99212.58;1718035;82;25731;-75
2021/04/06 01:58:53;;;;;;;6.83;2.87;;;;;;;1.16;73.76;99217.69;1697877;81;25914;-74
2021/04/06 02:01:23;;;;;;;7.83;2.72;;;;;;;1.18;73.74;99224.11;1740314;81;26334;-75
2021/04/06 02:04:02;;;;;;;4.78;2.30;;;;;;;1.19;73.79;99220.01;1743918;81;28409;-76
2021/04/06 02:06:31;;;;;;;9.58;2.62;;;;;;;1.19;74.03;99223.13;1729536;81;26024;-74
2021/04/06 02:09:01;;;;;;;5.80;2.80;;;;;;;1.19;73.70;99215.22;1725992;81;26401;-74
2021/04/06 02:11:32;;;;;;;6.22;2.58;;;;;;;1.23;73.71;99220.02;1713762;82;25860;-74
2021/04/06 02:14:11;;;;;;;9.58;3.12;;;;;;;1.25;73.53;99229.08;1729603;81;25799;-74
2021/04/06 02:17:04;;;;;;;10.40;2.70;;;;;;;1.24;73.49;99236.16;1713395;81;27080;-74
2021/04/06 02:19:36;;;;;;;5.65;2.60;;;;;;;1.24;73.48;99235.36;1723864;81;25883;-74
2021/04/06 02:22:14;;;;;;;7.58;2.55;;;;;;;1.25;73.51;99239.63;1712088;82;25995;-75
2021/04/06 02:24:48;;;;;;;7.25;2.70;;;;;;;1.27;73.53;99238.48;1740154;81;25743;-74
2021/04/06 02:27:25;;;;;;;8.48;2.40;;;;;;;1.28;73.65;99237.48;1745402;81;25650;-74
2021/04/06 02:29:59;;;;;;;8.78;2.65;;;;;;;1.29;73.53;99240.47;1699602;81;27556;-74
2021/04/06 02:32:30;;;;;;;8.35;2.42;;;;;;;1.32;73.35;99244.60;1696243;81;25771;-74
2021/04/06 02:35:07;;;;;;;11.48;2.87;;;;;;;1.33;73.41;99247.06;1737515;81;25866;-75
2021/04/06 02:37:39;;;;;;;8.68;2.30;;;;;;;1.35;73.34;99242.95;1717880;81;25827;-74
2021/04/06 02:40:18;;;;;;;6.75;2.52;;;;;;;1.41;73.31;99248.41;1826452;77;26056;-75
2021/04/06 02:42:48;;;;;;;4.65;1.98;;;;;;;1.35;73.26;99256.13;1768602;80;25927;-74
2021/04/06 02:45:22;;;;;;;10.23;2.60;;;;;;;1.35;73.36;99256.13;1790716;78;27628;-75
2021/04/06 02:48:10;;;;;;;5.28;2.25;;;;;;;1.35;73.31;99258.28;1741248;78;26054;-75
2021/04/06 02:50:43;;;;;;;9.05;2.40;;;;;;;1.42;73.45;99265.06;1788524;79;25706;-74
2021/04/06 02:53:15;;;;;;;6.80;2.25;;;;;;;1.36;73.60;99263.91;1731297;81;26482;-75
2021/04/06 02:55:43;;;;;;;8.50;2.42;;;;;;;1.35;73.62;99270.64;1771562;80;27537;-74
2021/04/06 02:58:16;;;;;;;4.95;2.45;;;;;;;1.35;73.89;99274.59;1693186;81;25912;-74
2021/04/06 03:00:43;;;;;;;4.42;2.50;;;;;;;1.34;73.79;99267.20;1718967;81;25882;-74
2021/04/06 03:03:24;;;;;;;5.78;2.50;;;;;;;1.34;74.31;99267.69;1740750;80;25741;-74
2021/04/06 03:06:02;;;;;;;;;;;;;;;1.34;74.21;99269.01;1772198;80;26242;-74
2021/04/06 03:08:32;;;;;;;8.68;3.50;;;;;;;1.30;74.23;99272.95;1714338;80;27563;-74
2021/04/06 03:11:01;;;;;;;9.43;4.08;;;;;;;1.28;74.34;99268.34;1749727;80;26138;-74
2021/04/06 03:13:29;;;;;;;16.17;6.08;;;;;;;1.28;74.36;99272.29;1776109;78;26082;-74
2021/04/06 03:15:57;;;;;;;10.85;3.35;;;;;;;1.29;74.24;99276.08;1681918;80;26057;-75
2021/04/06 03:18:37;;;;;;;10.35;4.30;;;;;;;1.29;74.31;99274.76;1722253;80;25415;-75
2021/04/06 03:21:08;;;;;;;12.18;3.85;;;;;;;1.28;74.20;99273.61;1720386;81;27546;-75
2021/04/06 03:23:37;;;;;;;11.55;3.80;;;;;;;1.27;74.16;99275.90;1737897;81;25868;-74
2021/04/06 03:26:07;;;;;;;24.50;11.25;;;;;;;1.28;74.10;99274.41;1742606;80;25924;-74
2021/04/06 03:28:38;;;;;;;81.47;33.87;;;;;;;1.31;74.08;99279.38;1744885;81;25828;-75
2021/04/06 03:31:15;;;;;;;23.95;13.18;;;;;;;1.33;73.92;99276.09;1746780;80;25913;-74
2021/04/06 03:33:50;;;;;;;20.12;8.03;;;;;;;1.35;73.96;99278.55;1741112;81;27412;-74
2021/04/06 03:36:21;;;;;;;10.05;4.42;;;;;;;1.36;73.75;99281.55;1720645;80;26136;-74
2021/04/06 03:38:52;;;;;;;14.33;5.35;;;;;;;1.35;73.67;99277.23;1744324;80;25855;-74
2021/04/06 03:41:24;;;;;;;13.53;4.65;;;;;;;1.34;73.53;99278.23;1722120;80;25837;-74
2021/04/06 03:43:52;;;;;;;9.63;3.42;;;;;;;1.37;73.44;99288.45;1737331;80;25922;-75
2021/04/06 03:46:24;;;;;;;6.95;3.62;;;;;;;1.37;73.53;99284.01;1719075;80;27631;-74
2021/04/06 03:48:52;;;;;;;7.90;3.40;;;;;;;1.36;73.57;99277.58;1706016;80;26335;-74
2021/04/06 03:51:29;;;;;;;10.25;3.27;;;;;;;1.33;73.50;99278.72;1713840;81;26464;-76
2021/04/06 03:53:57;;;;;;;13.90;3.70;;;;;;;1.33;73.49;99281.84;1722488;81;26175;-74
2021/04/06 03:56:32;;;;;;;7.00;2.65;;;;;;;1.33;73.67;99277.89;1708807;81;25787;-75
2021/04/06 03:59:02;;;;;;;11.25;2.85;;;;;;;1.33;73.53;99285.32;1712721;81;27622;-74
2021/04/06 04:01:29;;;;;;;8.88;3.20;;;;;;;1.33;73.58;99286.64;1738071;81;26059;-74
2021/04/06 04:03:57;;;;;;;7.37;3.15;;;;;;;1.33;73.51;99280.05;1684284;81;25841;-73
2021/04/06 04:06:27;;;;;;;6.70;3.35;;;;;;;1.32;73.54;99280.21;1698031;81;25825;-74
2021/04/06 04:08:56;;;;;;;19.42;3.80;;;;;;;1.30;73.50;99280.87;1712601;81;25971;-74
2021/04/06 04:11:23;;;;;;;7.47;2.70;;;;;;;1.31;73.63;99282.50;1715154;81;28468;-74
2021/04/06 04:13:51;;;;;;;8.30;3.50;;;;;;;1.32;73.59;99279.73;1713905;81;25771;-74
2021/04/06 04:16:18;;;;;;;4.22;2.80;;;;;;;1.33;73.65;99284.00;1667392;83;25717;-73
2021/04/06 04:18:45;;;;;;;10.20;3.30;;;;;;;1.34;73.56;99286.16;1688723;83;25810;-74
2021/04/06 04:21:13;;;;;;;14.43;4.03;;;;;;;1.32;73.69;99283.69;1716592;81;25848;-75
2021/04/06 04:23:40;;;;;;;8.80;3.72;;;;;;;1.32;73.70;99290.28;1711797;81;28281;-74
2021/04/06 04:26:08;;;;;;;13.22;5.42;;;;;;;1.33;74.02;99285.80;1740488;81;25775;-74
2021/04/06 04:28:35;;;;;;;11.12;2.90;;;;;;;1.34;73.85;99291.42;1713271;81;26083;-74
2021/04/06 04:31:10;;;;;;;12.35;4.00;;;;;;;1.32;73.99;99294.72;1712168;81;25833;-74
2021/04/06 04:33:35;;;;;;;8.83;3.85;;;;;;;1.31;73.99;99293.89;1713696;81;25901;-74
2021/04/06 04:36:02;;;;;;;12.65;4.20;;;;;;;1.33;74.06;99294.55;1682967;81;28344;-75
2021/04/06 04:38:30;;;;;;;7.95;3.67;;;;;;;1.33;74.11;99291.08;1714913;81;25733;-74
2021/04/06 04:40:57;;;;;;;7.50;3.37;;;;;;;1.35;74.25;99289.11;1684856;81;26360;-74
2021/04/06 04:43:25;;;;;;;9.28;3.70;;;;;;;1.36;74.44;99294.25;1712192;81;25988;-73
2021/04/06 04:45:52;;;;;;;10.50;4.00;;;;;;;1.36;74.42;99293.41;1690822;81;26123;-74
2021/04/06 04:48:19;;;;;;;16.55;5.22;;;;;;;1.37;74.34;99289.77;1698627;82;28539;-75
2021/04/06 04:50:47;;;;;;;8.55;3.92;;;;;;;1.40;74.41;99284.19;1713935;81;25874;-75
2021/04/06 04:53:14;;;;;;;8.78;3.50;;;;;;;1.42;74.63;99279.09;1680960;83;25899;-74
2021/04/06 04:55:41;;;;;;;6.90;3.60;;;;;;;1.44;74.52;99284.20;1688940;81;25874;-74
2021/04/06 04:58:11;;;;;;;12.60;4.08;;;;;;;1.43;74.48;99289.95;1664570;83;26601;-74
2021/04/06 05:00:38;;;;;;;7.35;3.95;;;;;;;1.43;74.73;99289.95;1716515;81;28601;-74
2021/04/06 05:03:05;;;;;;;5.78;2.87;;;;;;;1.42;74.90;99304.16;1712613;81;25921;-74
2021/04/06 05:05:33;;;;;;;11.05;4.67;;;;;;;1.41;75.21;99304.32;1687966;83;25854;-75
2021/04/06 05:08:00;;;;;;;13.00;4.40;;;;;;;1.41;75.06;99303.80;1689864;81;26004;-74
2021/04/06 05:10:28;;;;;;;15.85;4.80;;;;;;;1.41;75.03;99309.08;1715140;81;25719;-75
2021/04/06 05:12:55;;;;;;;9.53;4.33;;;;;;;1.43;75.11;99313.70;1712477;83;26570;-75
2021/04/06 05:15:23;;;;;;;14.07;4.62;;;;;;;1.44;75.24;99315.37;1695048;82;25804;-74
2021/04/06 05:17:50;;;;;;;14.23;5.40;;;;;;;1.46;75.23;99317.36;1691827;81;25979;-74
2021/04/06 05:20:17;;;;;;;14.73;6.12;;;;;;;1.49;75.32;99323.64;1712676;81;26129;-75
2021/04/06 05:22:45;;;;;;;12.78;7.58;;;;;;;1.51;75.30;99323.47;1711291;81;26428;-74
2021/04/06 05:25:12;;;;;;;17.62;8.75;;;;;;;1.52;75.51;99323.30;1693124;81;27620;-74
2021/04/06 05:27:39;;;;;;;16.85;7.95;;;;;;;1.54;75.33;99330.56;1689821;81;25784;-74
2021/04/06 05:30:08;;;;;;;12.23;6.35;;;;;;;1.57;75.29;99328.11;1713282;81;25926;-74
2021/04/06 05:32:36;;;;;;;16.12;6.60;;;;;;;1.60;75.48;99331.75;1712541;83;26459;-74
2021/04/06 05:35:05;;;;;;;18.48;5.12;;;;;;;1.61;75.39;99328.59;1692878;81;26374;-74
2021/04/06 05:37:32;;;;;;;10.03;4.95;;;;;;;1.63;75.25;99342.46;1692494;81;27607;-75
2021/04/06 05:39:59;;;;;;;16.95;5.22;;;;;;;1.63;75.40;99352.53;1715464;81;26273;-75
2021/04/06 05:42:29;;;;;;;15.80;5.85;;;;;;;1.65;75.43;99358.98;1708530;81;25930;-74
2021/04/06 05:44:57;;;;;;;18.57;5.35;;;;;;;1.66;75.32;99361.95;1692465;81;25810;-75
2021/04/06 05:47:35;;;;;;;15.85;5.87;;;;;;;1.69;75.69;99365.59;1689105;81;26627;-74
2021/04/06 05:50:05;;;;;;;14.35;5.75;;;;;;;1.68;75.34;99372.68;1712598;81;28745;-73
2021/04/06 05:52:34;;;;;;;11.53;4.43;;;;;;;1.68;75.51;99368.72;1712622;82;25880;-75
2021/04/06 05:55:05;;;;;;;16.52;5.60;;;;;;;1.68;75.47;99369.20;1687262;81;26102;-74
2021/04/06 05:57:35;;;;;;;12.13;4.62;;;;;;;1.64;75.24;99374.48;1700645;82;25867;-74
2021/04/06 06:00:07;;;;;;;10.25;5.17;;;;;;;1.61;75.46;99372.14;1710142;81;25965;-75
2021/04/06 06:02:40;;;;;;;6.08;3.92;;;;;;;1.59;75.63;99372.31;1688606;81;28313;-74
2021/04/06 06:05:12;;;;;;;14.43;5.08;;;;;;;1.56;75.75;99369.50;1680843;81;26518;-73
2021/04/06 06:07:40;;;;;;;12.82;4.92;;;;;;;1.54;76.04;99379.38;1710892;82;26489;-73
2021/04/06 06:10:29;;;;;;;16.60;5.08;;;;;;;1.55;75.89;99386.81;1689209;81;25829;-74
2021/04/06 06:13:19;;;;;;;11.43;4.72;;;;;;;1.55;75.84;99386.33;1713432;81;25838;-74
2021/04/06 06:16:22;;;;;;;14.28;5.78;;;;;;;1.55;76.04;99386.81;1711191;81;28512;-74
2021/04/06 06:19:09;;;;;;;15.60;5.78;;;;;;;1.56;75.85;99388.48;1728972;81;26153;-75
2021/04/06 06:21:53;;;;;;;13.22;5.40;;;;;;;1.61;75.96;99387.49;1697211;81;25897;-74
2021/04/06 06:24:28;;;;;;;8.30;4.37;;;;;;;1.65;75.73;99388.02;1683087;82;25892;-74
2021/04/06 06:26:57;;;;;;;16.02;5.85;;;;;;;1.69;75.82;99382.75;1684752;81;26020;-74
2021/04/06 06:32:04;;;;;;;14.73;3.85;;;;;;;1.77;75.22;99390.69;1811837;77;25638;-74
2021/04/06 06:34:40;;;;;;;15.75;5.58;;;;;;;1.71;74.95;99389.50;1688978;80;25730;-74
2021/04/06 06:37:18;;;;;;;13.88;4.85;;;;;;;1.70;74.95;99398.91;1745604;80;27570;-74
2021/04/06 06:40:03;;;;;;;14.87;5.55;;;;;;;1.69;74.73;99401.23;1724133;80;26174;-74
2021/04/06 06:42:37;;;;;;;13.93;6.10;;;;;;;1.69;74.47;99403.35;1692885;80;25881;-74
2021/04/06 06:45:24;;;;;;;16.02;5.15;;;;;;;1.72;74.87;99397.77;1718711;80;25883;-74
2021/04/06 06:47:57;;;;;;;15.00;5.25;;;;;;;1.78;74.83;99406.36;1739356;80;26009;-75
2021/04/06 06:50:27;;;;;;;16.48;5.53;;;;;;;1.87;75.03;99414.65;1676548;80;27555;-74
2021/04/06 06:52:56;;;;;;;17.90;5.60;;;;;;;1.93;74.75;99415.81;1695478;80;25809;-74
2021/04/06 06:55:26;;;;;;;14.33;5.62;;;;;;;1.99;74.66;99405.95;1715335;80;25881;-74
2021/04/06 06:58:02;;;;;;;12.58;6.05;;;;;;;2.05;74.08;99388.94;1722905;80;26230;-77
2021/04/06 07:00:31;;;;;;;16.48;4.75;;;;;;;2.10;74.05;99380.05;1650870;80;25797;-77
2021/04/06 07:02:59;;;;;;;14.73;4.95;;;;;;;2.16;74.04;99382.02;1708894;80;28513;-77
2021/04/06 07:05:30;;;;;;;17.05;5.03;;;;;;;2.23;73.57;99376.92;1715578;80;25810;-77
2021/04/06 07:08:08;;;;;;;18.20;6.00;;;;;;;2.29;73.50;99387.66;1747087;80;25853;-76
2021/04/06 07:10:39;;;;;;;14.35;6.85;;;;;;;2.39;73.47;99394.61;1673451;80;26103;-76
2021/04/06 07:13:20;;;;;;;19.98;6.33;;;;;;;2.45;72.74;99397.43;1708881;80;26179;-77
2021/04/06 07:15:52;;;;;;;10.93;4.78;;;;;;;2.49;72.17;99413.77;1746492;80;27583;-77
2021/04/06 07:18:23;;;;;;;16.75;6.30;;;;;;;2.52;71.89;99412.14;1737223;80;25817;-76
2021/04/06 07:20:58;;;;;;;20.95;5.67;;;;;;;2.55;72.23;99414.43;1686685;80;25844;-77
2021/04/06 07:23:42;;;;;;;16.55;4.85;;;;;;;2.60;72.00;99414.77;1694609;80;25864;-77
2021/04/06 07:26:20;;;;;;;19.02;5.50;;;;;;;2.60;71.50;99410.81;1696218;80;26151;-77
2021/04/06 07:28:48;;;;;;;18.05;5.28;;;;;;;2.58;71.53;99422.88;1752431;80;27527;-76
2021/04/06 07:31:16;;;;;;;9.50;4.05;;;;;;;2.60;71.29;99436.76;1668713;82;26596;-76
2021/04/06 07:33:46;;;;;;;13.10;5.53;;;;;;;2.59;71.16;99437.73;1679520;82;25829;-76
2021/04/06 07:36:19;;;;;;;21.57;6.15;;;;;;;2.60;70.96;99440.72;1678698;82;25936;-77
2021/04/06 07:38:57;;;;;;;12.88;5.00;;;;;;;2.57;71.01;99430.47;1725923;82;25793;-77
2021/04/06 07:41:29;;;;;;;10.35;5.30;;;;;;;2.57;70.21;99436.23;1679782;82;27558;-76
2021/04/06 07:43:58;;;;;;;10.15;4.75;;;;;;;2.58;70.46;99437.42;1662132;85;25944;-76
2021/04/06 07:46:39;;;;;;;12.47;5.55;;;;;;;2.59;69.71;99425.03;1639602;85;25782;-77
2021/04/06 07:49:24;;;;;;;11.28;5.30;;;;;;;2.62;70.35;99433.94;1667829;85;25765;-77
2021/04/06 07:51:54;;;;;;;16.77;5.97;;;;;;;2.67;70.25;99436.44;1647888;85;26227;-77
2021/04/06 07:54:26;;;;;;;23.73;6.53;;;;;;;2.73;70.15;99423.88;1648551;85;27629;-76
2021/04/06 07:57:00;;;;;;;15.85;7.45;;;;;;;2.80;70.05;99405.53;1648864;85;25801;-76
2021/04/06 07:59:36;;;;;;;16.42;6.03;;;;;;;2.93;70.55;99416.44;1672687;85;25574;-77
2021/04/06 08:02:11;;;;;;;11.30;6.17;;;;;;;3.03;69.65;99418.40;1650527;85;26130;-77
2021/04/06 08:04:47;;;;;;;14.65;5.97;;;;;;;3.05;69.92;99411.95;1678113;84;26385;-77
2021/04/06 08:07:22;;;;;;;12.13;5.17;;;;;;;3.12;69.76;99408.14;1670226;85;28052;-77
2021/04/06 08:10:09;;;;;;;17.50;5.97;;;;;;;3.14;69.25;99422.02;1670089;85;25881;-76
2021/04/06 08:12:38;;;;;;;17.27;7.03;;;;;;;3.11;69.20;99405.98;1627034;85;25858;-77
2021/04/06 08:18:02;;;;;;;14.80;7.22;;;;;;;3.06;68.75;99418.05;1796136;79;25602;-77
2021/04/06 08:20:42;;;;;;;19.60;8.38;;;;;;;3.00;69.37;99420.05;1735730;80;25864;-76
2021/04/06 08:23:43;;;;;;;16.65;7.30;;;;;;;3.05;69.57;99413.77;1689869;83;27746;-77
2021/04/06 08:26:30;;;;;;;21.48;9.18;;;;;;;3.10;69.52;99426.00;1661447;85;26125;-77
2021/04/06 08:29:27;;;;;;;21.75;8.58;;;;;;;3.19;69.70;99432.91;1628415;85;26217;-77
2021/04/06 08:32:14;;;;;;;24.18;8.53;;;;;;;3.28;70.10;99440.34;1707373;82;25897;-76
2021/04/06 08:34:54;;;;;;;15.35;7.87;;;;;;;3.41;69.65;99445.94;1686987;83;25694;-75
2021/04/06 08:37:37;;;;;;;;;;;;;;;3.51;69.51;99451.86;1639121;83;28727;-77
2021/04/06 08:40:08;;;;;;;16.80;6.05;;;;;;;3.52;68.31;99455.69;1681524;83;26188;-77
2021/04/06 08:42:37;;;;;;;18.80;7.12;;;;;;;3.58;68.65;99459.46;1663674;83;25891;-77
2021/04/06 08:45:07;;;;;;;16.65;7.35;;;;;;;3.63;68.14;99470.38;1654486;83;26459;-76
2021/04/06 08:47:47;;;;;;;14.40;6.80;;;;;;;3.69;67.90;99477.64;1663642;83;25628;-78
2021/04/06 08:50:36;;;;;;;22.65;7.83;;;;;;;3.75;67.18;99470.33;1644088;85;28450;-77
2021/04/06 08:53:06;;;;;;;18.25;7.20;;;;;;;3.84;66.14;99478.09;1648652;85;25911;-78
2021/04/06 08:55:33;;;;;;;13.53;6.33;;;;;;;3.84;65.27;99465.34;1644940;85;25943;-79
2021/04/06 08:58:01;;;;;;;21.17;8.28;;;;;;;3.84;65.93;99464.84;1647381;85;26557;-76
2021/04/06 09:00:29;;;;;;;14.13;7.17;;;;;;;3.85;66.39;99474.92;1643915;85;25913;-77
2021/04/06 09:03:05;;;;;;;16.77;8.75;;;;;;;3.83;66.28;99476.42;1646529;85;27352;-76
2021/04/06 09:05:33;;;;;;;13.75;6.40;;;;;;;3.82;66.02;99469.48;1662994;85;25931;-76
2021/04/06 09:08:01;;;;;;;15.88;6.15;;;;;;;3.74;63.32;99469.49;1640901;85;26556;-76
2021/04/06 09:10:37;;;;;;;19.57;7.80;;;;;;;3.75;65.58;99469.00;1642341;85;26395;-76
2021/04/06 09:13:04;;;;;;;14.63;6.40;;;;;;;3.90;66.26;99464.65;1675417;84;25809;-77
2021/04/06 09:15:32;;;;;;;14.55;5.95;;;;;;;3.99;65.27;99460.14;1633959;85;28660;-75
2021/04/06 09:18:05;;;;;;;18.35;5.58;;;;;;;4.00;63.95;99457.83;1636578;85;26173;-77
2021/04/06 09:20:32;;;;;;;13.68;5.20;;;;;;;3.98;65.15;99459.30;1635664;85;25955;-77
2021/04/06 09:23:05;;;;;;;8.25;4.37;;;;;;;4.03;64.92;99456.14;1666015;84;26005;-77
2021/04/06 09:25:32;;;;;;;9.03;4.65;;;;;;;4.06;64.25;99446.54;1660099;85;26463;-76
2021/04/06 09:28:04;;;;;;;17.35;6.03;;;;;;;4.04;63.82;99449.86;1638129;85;27527;-77
2021/04/06 09:30:40;;;;;;;12.58;4.37;;;;;;;4.01;64.54;99462.12;1652434;85;26523;-76
2021/04/06 09:33:16;;;;;;;17.10;6.50;;;;;;;3.96;63.80;99459.98;1636784;85;26004;-76
2021/04/06 09:35:51;;;;;;;14.45;4.47;;;;;;;3.90;64.20;99464.65;1665889;84;25732;-76
2021/04/06 09:38:23;;;;;;;14.05;5.67;;;;;;;3.87;64.04;99470.30;1637892;85;25846;-77
2021/04/06 09:40:52;;;;;;;14.60;4.97;;;;;;;3.82;64.80;99471.31;1641534;85;27614;-77
2021/04/06 09:43:20;;;;;;;17.50;5.15;;;;;;;3.86;63.99;99473.94;1687876;84;26310;-76
2021/04/06 09:45:50;;;;;;;10.63;3.55;;;;;;;3.82;63.26;99480.09;1614943;85;25924;-77
2021/04/06 09:48:18;;;;;;;15.08;4.20;;;;;;;3.82;63.45;99487.20;1666727;84;25852;-76
2021/04/06 09:51:06;;;;;;;17.77;5.25;;;;;;;3.75;63.47;99476.95;1653315;85;25921;-77
2021/04/06 09:53:37;;;;;;;10.05;4.65;;;;;;;3.73;63.89;99490.86;1600659;84;27337;-77
2021/04/06 09:56:05;;;;;;;20.32;5.25;;;;;;;3.75;64.06;99495.48;1649563;84;26276;-77
2021/04/06 09:58:34;;;;;;;18.15;5.00;;;;;;;3.70;63.58;99492.55;1644664;84;25948;-78
2021/04/06 10:01:04;;;;;;;14.00;4.78;;;;;;;3.67;63.42;99499.48;1642306;85;26639;-76
2021/04/06 10:03:37;;;;;;;13.22;4.75;;;;;;;3.58;63.29;99494.71;1667640;84;25805;-77
2021/04/06 10:06:07;;;;;;;17.85;5.35;;;;;;;3.53;63.26;99495.70;1667125;84;28241;-77
2021/04/06 10:08:35;;;;;;;12.82;5.28;;;;;;;3.47;63.67;99507.46;1645466;84;25910;-76
2021/04/06 10:11:03;;;;;;;11.53;3.95;;;;;;;3.37;63.50;99508.15;1687648;84;25779;-78
2021/04/06 10:13:31;;;;;;;13.48;4.92;;;;;;;3.21;63.96;99508.98;1668081;84;26422;-77
2021/04/06 10:16:12;;;;;;;17.77;4.50;;;;;;;3.07;64.40;99512.30;1647141;84;25905;-76
2021/04/06 10:18:42;;;;;;;14.18;5.55;;;;;;;2.99;64.71;99517.59;1660151;84;27546;-76
2021/04/06 10:21:26;;;;;;;17.40;5.00;;;;;;;2.98;65.04;99513.28;1633197;84;26012;-76
2021/04/06 10:24:06;;;;;;;10.50;3.60;;;;;;;2.96;65.09;99512.63;1651907;84;25758;-76
2021/04/06 10:26:34;;;;;;;8.25;3.80;;;;;;;2.97;65.09;99511.13;1658521;85;26163;-77
2021/04/06 10:29:11;;;;;;;11.65;4.00;;;;;;;3.02;64.65;99505.34;1669592;84;25805;-76
2021/04/06 10:31:51;;;;;;;12.45;4.25;;;;;;;3.02;64.81;99509.31;1653074;85;27550;-77
2021/04/06 10:34:19;;;;;;;14.65;4.45;;;;;;;3.05;64.65;99498.42;1667199;84;25973;-77
2021/04/06 10:37:06;;;;;;;15.65;4.72;;;;;;;3.09;64.22;99497.92;1651606;84;25786;-77
2021/04/06 10:39:43;;;;;;;13.58;5.08;;;;;;;3.19;64.57;99489.00;1640202;85;25577;-77
2021/04/06 10:42:14;;;;;;;10.70;3.87;;;;;;;3.28;63.32;99490.13;1649807;85;26068;-77
2021/04/06 10:44:45;;;;;;;11.63;4.55;;;;;;;3.37;62.74;99485.16;1644183;85;28284;-77
2021/04/06 10:47:28;;;;;;;13.40;5.10;;;;;;;3.58;64.41;99483.28;1627313;84;25795;-76
2021/04/06 10:49:57;;;;;;;12.15;3.52;;;;;;;3.86;64.16;99481.39;1669760;85;25831;-76
2021/04/06 10:52:34;;;;;;;8.93;2.72;;;;;;;4.04;61.90;99471.89;1646789;85;26430;-77
2021/04/06 10:55:05;;;;;;;11.97;3.50;;;;;;;4.03;61.53;99475.52;1648353;85;26055;-78
2021/04/06 10:57:36;;;;;;;15.58;4.30;;;;;;;4.05;60.34;99471.37;1625587;85;27569;-77
2021/04/06 11:00:24;;;;;;;10.68;4.00;;;;;;;4.09;60.13;99477.97;1646641;85;25817;-77
2021/04/06 11:03:12;;;;;;;14.18;3.77;;;;;;;4.06;60.80;99469.89;1646635;85;25819;-77
2021/04/06 11:05:41;;;;;;;17.57;4.50;;;;;;;4.05;61.00;99466.91;1649237;85;25417;-76
2021/04/06 11:08:22;;;;;;;8.85;3.60;;;;;;;4.07;61.10;99468.88;1648241;85;25876;-77
2021/04/06 11:10:54;;;;;;;14.05;4.55;;;;;;;4.15;59.32;99479.44;1627054;85;27637;-77
2021/04/06 11:13:23;;;;;;;8.28;3.33;;;;;;;4.16;58.60;99478.45;1648575;85;25859;-77
2021/04/06 11:15:50;;;;;;;9.23;3.62;;;;;;;4.21;58.84;99474.80;1655649;85;25896;-77
2021/04/06 11:18:18;;;;;;;12.10;3.05;;;;;;;4.20;58.43;99473.61;1648875;85;26145;-76
2021/04/06 11:20:45;;;;;;;16.17;5.25;;;;;;;4.23;59.17;99483.39;1624806;85;26058;-77
2021/04/06 11:23:12;;;;;;;18.27;6.30;;;;;;;4.21;59.95;99485.39;1646854;85;27709;-77
2021/04/06 11:25:40;;;;;;;13.18;4.92;;;;;;;4.26;59.61;99490.98;1628103;85;25792;-77
2021/04/06 11:28:07;;;;;;;11.35;3.83;;;;;;;4.32;60.03;99495.58;1646677;85;25809;-76
2021/04/06 11:30:35;;;;;;;11.33;4.75;;;;;;;4.37;58.69;99484.46;1630921;84;25888;-77
2021/04/06 11:33:05;;;;;;;19.45;6.20;;;;;;;4.34;59.13;99484.83;1652668;84;25765;-76
2021/04/06 11:35:33;;;;;;;13.95;5.00;;;;;;;4.40;60.32;99484.95;1656665;84;27116;-77
2021/04/06 11:38:00;;;;;;;12.47;4.90;;;;;;;4.46;58.06;99484.25;1643031;84;26162;-76
2021/04/06 11:40:28;;;;;;;15.43;4.12;;;;;;;4.40;59.05;99481.47;1650413;84;25924;-77
2021/04/06 11:42:56;;;;;;;13.28;4.87;;;;;;;4.37;58.38;99476.02;1652189;84;25811;-76
2021/04/06 11:45:24;;;;;;;23.47;10.55;;;;;;;4.35;59.08;99472.71;1652308;84;26041;-77
2021/04/06 11:47:53;;;;;;;51.77;19.25;;;;;;;4.38;58.25;99475.03;1636431;84;27565;-77
2021/04/06 11:50:21;;;;;;;27.05;9.35;;;;;;;4.36;58.44;99472.22;1652369;84;26018;-77
2021/04/06 11:52:50;;;;;;;35.50;15.05;;;;;;;4.36;58.41;99473.02;1650768;84;25743;-76
2021/04/06 11:55:18;;;;;;;160.12;61.98;;;;;;;4.36;58.58;99478.84;1651758;84;25786;-77
2021/04/06 11:57:46;;;;;;;81.78;44.30;;;;;;;4.38;58.95;99469.73;1634586;84;26635;-76
2021/04/06 12:00:24;;;;;;;22.17;14.28;;;;;;;4.46;59.01;99473.65;1838570;77;25741;-76
2021/04/06 12:02:51;;;;;;;15.80;7.90;;;;;;;4.46;59.00;99472.32;1768176;78;25533;-78
2021/04/06 12:05:19;;;;;;;13.00;6.00;;;;;;;4.50;57.74;99481.58;1771394;79;27460;-77